San Antonio, Texas
Traffic Map
Current Weather Conditions
San Antonio, Texas
Overcast
Overcast
58°
Feels Like: 58°
Wind Chill: 58° Ceiling: 600
Heat Index: 58° Visibility: 10mi
Dew Point: 56° Wind: 8mph
Humidity: 93% Direction: 10° (N)
Pressure: 30.23in Gusts: 0mph
Raw Report DataKSAT 190151Z 01007KT 10SM OVC006 14/13 A3023 RMK AO2 SLP226 T01440133
Traffic Incident Summary
Active as of:
Severity:
Category:
InformationThere was an issue retrieving the traffic information for this location. Please try a different location or try again shortly.
Advertisements